sensor_id;sensor_type;location;lat;lon;timestamp;temperature;humidity
1413;DHT22;701;52.526;13.408;2022-11-24T00:01:40;3.60;53.80
1413;DHT22;701;52.526;13.408;2022-11-24T00:04:06;3.60;53.80
1413;DHT22;701;52.526;13.408;2022-11-24T00:06:33;3.60;53.70
1413;DHT22;701;52.526;13.408;2022-11-24T00:09:01;3.60;53.60
1413;DHT22;701;52.526;13.408;2022-11-24T00:11:29;3.60;53.50
1413;DHT22;701;52.526;13.408;2022-11-24T00:13:57;3.70;53.20
1413;DHT22;701;52.526;13.408;2022-11-24T00:16:34;3.70;53.30
1413;DHT22;701;52.526;13.408;2022-11-24T00:19:01;3.70;52.80
1413;DHT22;701;52.526;13.408;2022-11-24T00:21:29;3.70;52.80
1413;DHT22;701;52.526;13.408;2022-11-24T00:23:56;3.70;52.80
1413;DHT22;701;52.526;13.408;2022-11-24T00:26:25;3.70;52.80
1413;DHT22;701;52.526;13.408;2022-11-24T00:28:53;3.70;52.80
1413;DHT22;701;52.526;13.408;2022-11-24T00:33:48;3.80;52.80
1413;DHT22;701;52.526;13.408;2022-11-24T00:36:15;3.90;52.90
1413;DHT22;701;52.526;13.408;2022-11-24T00:38:42;3.90;52.60
1413;DHT22;701;52.526;13.408;2022-11-24T00:41:08;3.90;52.30
1413;DHT22;701;52.526;13.408;2022-11-24T00:43:34;4.00;52.20
1413;DHT22;701;52.526;13.408;2022-11-24T00:46:00;4.00;51.90
1413;DHT22;701;52.526;13.408;2022-11-24T00:48:26;4.00;51.60
1413;DHT22;701;52.526;13.408;2022-11-24T00:50:56;4.00;51.20
1413;DHT22;701;52.526;13.408;2022-11-24T00:53:22;4.00;51.20
1413;DHT22;701;52.526;13.408;2022-11-24T00:55:49;4.00;51.40
1413;DHT22;701;52.526;13.408;2022-11-24T00:58:15;4.10;51.20
1413;DHT22;701;52.526;13.408;2022-11-24T01:00:41;4.10;50.80
1413;DHT22;701;52.526;13.408;2022-11-24T01:03:07;4.10;50.70
1413;DHT22;701;52.526;13.408;2022-11-24T01:05:35;4.00;50.00
1413;DHT22;701;52.526;13.408;2022-11-24T01:08:01;4.10;50.50
1413;DHT22;701;52.526;13.408;2022-11-24T01:10:27;4.10;50.60
1413;DHT22;701;52.526;13.408;2022-11-24T01:12:52;4.10;50.40
1413;DHT22;701;52.526;13.408;2022-11-24T01:15:18;4.10;50.00
1413;DHT22;701;52.526;13.408;2022-11-24T01:17:44;4.20;49.40
1413;DHT22;701;52.526;13.408;2022-11-24T01:20:11;4.20;49.50
1413;DHT22;701;52.526;13.408;2022-11-24T01:22:37;4.20;49.00
1413;DHT22;701;52.526;13.408;2022-11-24T01:25:08;4.20;49.00
1413;DHT22;701;52.526;13.408;2022-11-24T01:27:34;4.20;49.00
1413;DHT22;701;52.526;13.408;2022-11-24T01:30:00;4.20;48.40
1413;DHT22;701;52.526;13.408;2022-11-24T01:32:26;4.30;48.50
1413;DHT22;701;52.526;13.408;2022-11-24T01:34:51;4.30;48.20
1413;DHT22;701;52.526;13.408;2022-11-24T01:37:17;4.30;48.40
1413;DHT22;701;52.526;13.408;2022-11-24T01:39:43;4.30;48.20
1413;DHT22;701;52.526;13.408;2022-11-24T01:42:09;4.30;47.20
1413;DHT22;701;52.526;13.408;2022-11-24T01:44:35;4.20;47.00
1413;DHT22;701;52.526;13.408;2022-11-24T01:49:52;4.20;47.40
1413;DHT22;701;52.526;13.408;2022-11-24T01:52:47;4.20;47.40
1413;DHT22;701;52.526;13.408;2022-11-24T01:55:22;4.20;46.90
1413;DHT22;701;52.526;13.408;2022-11-24T01:58:04;4.20;46.90
1413;DHT22;701;52.526;13.408;2022-11-24T02:00:30;4.20;47.30
1413;DHT22;701;52.526;13.408;2022-11-24T02:02:57;4.20;47.20
1413;DHT22;701;52.526;13.408;2022-11-24T02:05:35;4.20;47.30
1413;DHT22;701;52.526;13.408;2022-11-24T02:08:04;4.20;46.80
1413;DHT22;701;52.526;13.408;2022-11-24T02:10:34;4.20;47.00
1413;DHT22;701;52.526;13.408;2022-11-24T02:13:00;4.30;46.70
1413;DHT22;701;52.526;13.408;2022-11-24T02:15:26;4.30;46.30
1413;DHT22;701;52.526;13.408;2022-11-24T02:17:53;4.30;46.30
1413;DHT22;701;52.526;13.408;2022-11-24T02:20:18;4.30;46.00
1413;DHT22;701;52.526;13.408;2022-11-24T02:23:23;4.30;45.80
1413;DHT22;701;52.526;13.408;2022-11-24T02:26:05;4.30;45.50
1413;DHT22;701;52.526;13.408;2022-11-24T02:28:35;4.30;45.40
1413;DHT22;701;52.526;13.408;2022-11-24T02:31:02;4.20;45.30
1413;DHT22;701;52.526;13.408;2022-11-24T02:33:29;4.20;45.50
1413;DHT22;701;52.526;13.408;2022-11-24T02:35:55;4.20;45.40
1413;DHT22;701;52.526;13.408;2022-11-24T02:38:32;4.20;45.30
1413;DHT22;701;52.526;13.408;2022-11-24T02:41:02;4.20;45.20
1413;DHT22;701;52.526;13.408;2022-11-24T02:43:32;4.20;45.30
1413;DHT22;701;52.526;13.408;2022-11-24T02:45:59;4.20;45.60
1413;DHT22;701;52.526;13.408;2022-11-24T02:48:24;4.20;45.50
1413;DHT22;701;52.526;13.408;2022-11-24T02:50:50;4.20;45.40
1413;DHT22;701;52.526;13.408;2022-11-24T02:53:16;4.10;45.60
1413;DHT22;701;52.526;13.408;2022-11-24T02:55:42;4.10;45.40
1413;DHT22;701;52.526;13.408;2022-11-24T02:58:07;4.10;45.30
1413;DHT22;701;52.526;13.408;2022-11-24T03:00:33;4.10;45.60
1413;DHT22;701;52.526;13.408;2022-11-24T03:02:59;4.10;45.20
1413;DHT22;701;52.526;13.408;2022-11-24T03:05:24;4.10;44.80
1413;DHT22;701;52.526;13.408;2022-11-24T03:07:50;4.10;45.20
1413;DHT22;701;52.526;13.408;2022-11-24T03:10:16;4.10;45.30
1413;DHT22;701;52.526;13.408;2022-11-24T03:12:42;4.10;45.40
1413;DHT22;701;52.526;13.408;2022-11-24T03:15:08;4.00;45.30
1413;DHT22;701;52.526;13.408;2022-11-24T03:17:34;3.90;45.70
1413;DHT22;701;52.526;13.408;2022-11-24T03:20:00;3.90;45.90
1413;DHT22;701;52.526;13.408;2022-11-24T03:22:27;3.90;46.30
1413;DHT22;701;52.526;13.408;2022-11-24T03:24:53;3.90;46.50
1413;DHT22;701;52.526;13.408;2022-11-24T03:27:19;3.90;46.40
1413;DHT22;701;52.526;13.408;2022-11-24T03:29:45;3.90;46.40
1413;DHT22;701;52.526;13.408;2022-11-24T03:32:11;3.90;46.50
1413;DHT22;701;52.526;13.408;2022-11-24T03:34:37;3.90;46.50
1413;DHT22;701;52.526;13.408;2022-11-24T03:37:02;4.00;46.60
1413;DHT22;701;52.526;13.408;2022-11-24T03:39:28;4.00;46.50
1413;DHT22;701;52.526;13.408;2022-11-24T03:41:54;4.00;46.60
1413;DHT22;701;52.526;13.408;2022-11-24T03:44:20;4.00;46.50
1413;DHT22;701;52.526;13.408;2022-11-24T03:46:46;4.10;46.10
1413;DHT22;701;52.526;13.408;2022-11-24T03:49:11;4.10;46.00
1413;DHT22;701;52.526;13.408;2022-11-24T03:51:37;4.10;46.00
1413;DHT22;701;52.526;13.408;2022-11-24T03:54:03;4.00;45.80
1413;DHT22;701;52.526;13.408;2022-11-24T03:56:29;4.10;45.90
1413;DHT22;701;52.526;13.408;2022-11-24T03:58:54;4.10;45.80
1413;DHT22;701;52.526;13.408;2022-11-24T04:01:21;4.10;45.50
1413;DHT22;701;52.526;13.408;2022-11-24T04:03:46;4.00;45.70
1413;DHT22;701;52.526;13.408;2022-11-24T04:06:12;4.00;45.90
1413;DHT22;701;52.526;13.408;2022-11-24T04:08:38;4.00;46.20
1413;DHT22;701;52.526;13.408;2022-11-24T04:11:04;3.90;46.50
1413;DHT22;701;52.526;13.408;2022-11-24T04:13:30;3.80;47.00
1413;DHT22;701;52.526;13.408;2022-11-24T04:15:55;3.80;47.00
1413;DHT22;701;52.526;13.408;2022-11-24T04:18:21;3.80;46.90
1413;DHT22;701;52.526;13.408;2022-11-24T04:20:50;3.90;47.20
1413;DHT22;701;52.526;13.408;2022-11-24T04:23:17;3.90;47.30
1413;DHT22;701;52.526;13.408;2022-11-24T04:25:42;3.90;47.20
1413;DHT22;701;52.526;13.408;2022-11-24T04:28:09;4.00;47.00
1413;DHT22;701;52.526;13.408;2022-11-24T04:30:35;4.00;46.90
1413;DHT22;701;52.526;13.408;2022-11-24T04:33:03;4.00;46.60
1413;DHT22;701;52.526;13.408;2022-11-24T04:35:28;4.00;46.70
1413;DHT22;701;52.526;13.408;2022-11-24T04:37:54;4.00;46.30
1413;DHT22;701;52.526;13.408;2022-11-24T04:40:20;4.00;46.30
1413;DHT22;701;52.526;13.408;2022-11-24T04:42:55;4.00;46.30
1413;DHT22;701;52.526;13.408;2022-11-24T04:45:22;4.00;46.20
1413;DHT22;701;52.526;13.408;2022-11-24T04:47:48;3.90;45.90
1413;DHT22;701;52.526;13.408;2022-11-24T04:50:13;3.90;46.20
1413;DHT22;701;52.526;13.408;2022-11-24T04:52:39;3.80;46.60
1413;DHT22;701;52.526;13.408;2022-11-24T04:55:05;3.80;46.90
1413;DHT22;701;52.526;13.408;2022-11-24T04:57:31;3.80;46.80
1413;DHT22;701;52.526;13.408;2022-11-24T04:59:57;3.80;46.80
1413;DHT22;701;52.526;13.408;2022-11-24T05:02:23;3.80;47.30
1413;DHT22;701;52.526;13.408;2022-11-24T05:04:49;3.80;46.80
1413;DHT22;701;52.526;13.408;2022-11-24T05:07:15;3.80;46.70
1413;DHT22;701;52.526;13.408;2022-11-24T05:09:41;3.80;46.70
1413;DHT22;701;52.526;13.408;2022-11-24T05:12:26;3.80;46.60
1413;DHT22;701;52.526;13.408;2022-11-24T05:14:59;3.90;46.30
1413;DHT22;701;52.526;13.408;2022-11-24T05:17:37;3.90;46.30
1413;DHT22;701;52.526;13.408;2022-11-24T05:20:04;4.00;46.20
1413;DHT22;701;52.526;13.408;2022-11-24T05:22:30;4.00;45.80
1413;DHT22;701;52.526;13.408;2022-11-24T05:24:56;4.00;45.50
1413;DHT22;701;52.526;13.408;2022-11-24T05:27:22;4.00;44.70
1413;DHT22;701;52.526;13.408;2022-11-24T05:29:48;3.90;44.60
1413;DHT22;701;52.526;13.408;2022-11-24T05:32:14;3.90;44.60
1413;DHT22;701;52.526;13.408;2022-11-24T05:34:40;3.90;44.60
1413;DHT22;701;52.526;13.408;2022-11-24T05:37:05;4.00;44.70
1413;DHT22;701;52.526;13.408;2022-11-24T05:39:34;3.90;44.70
1413;DHT22;701;52.526;13.408;2022-11-24T05:42:05;3.90;44.60
1413;DHT22;701;52.526;13.408;2022-11-24T05:44:49;4.00;44.70
1413;DHT22;701;52.526;13.408;2022-11-24T05:47:15;4.00;44.70
1413;DHT22;701;52.526;13.408;2022-11-24T05:49:41;3.90;44.60
1413;DHT22;701;52.526;13.408;2022-11-24T05:52:07;3.90;44.60
1413;DHT22;701;52.526;13.408;2022-11-24T05:54:33;4.00;44.70
1413;DHT22;701;52.526;13.408;2022-11-24T05:56:58;4.00;44.80
1413;DHT22;701;52.526;13.408;2022-11-24T05:59:24;3.90;44.60
1413;DHT22;701;52.526;13.408;2022-11-24T06:01:50;3.90;44.40
1413;DHT22;701;52.526;13.408;2022-11-24T06:04:15;3.90;44.60
1413;DHT22;701;52.526;13.408;2022-11-24T06:06:41;3.90;44.60
1413;DHT22;701;52.526;13.408;2022-11-24T06:09:07;3.90;44.60
1413;DHT22;701;52.526;13.408;2022-11-24T06:11:33;3.90;44.60
1413;DHT22;701;52.526;13.408;2022-11-24T06:13:59;3.90;44.60
1413;DHT22;701;52.526;13.408;2022-11-24T06:16:25;3.90;44.60
1413;DHT22;701;52.526;13.408;2022-11-24T06:18:51;3.90;44.60
1413;DHT22;701;52.526;13.408;2022-11-24T06:21:16;3.90;44.60
1413;DHT22;701;52.526;13.408;2022-11-24T06:23:42;3.90;44.00
1413;DHT22;701;52.526;13.408;2022-11-24T06:26:08;3.90;44.30
1413;DHT22;701;52.526;13.408;2022-11-24T06:28:34;3.90;44.00
1413;DHT22;701;52.526;13.408;2022-11-24T06:31:04;3.80;43.90
1413;DHT22;701;52.526;13.408;2022-11-24T06:33:34;3.80;43.30
1413;DHT22;701;52.526;13.408;2022-11-24T06:36:05;3.70;44.00
1413;DHT22;701;52.526;13.408;2022-11-24T06:38:31;3.70;44.40
1413;DHT22;701;52.526;13.408;2022-11-24T06:41:07;3.70;44.20
1413;DHT22;701;52.526;13.408;2022-11-24T06:43:34;3.70;44.50
1413;DHT22;701;52.526;13.408;2022-11-24T06:46:00;3.70;44.50
1413;DHT22;701;52.526;13.408;2022-11-24T06:48:26;3.80;44.60
1413;DHT22;701;52.526;13.408;2022-11-24T06:50:56;3.80;44.50
1413;DHT22;701;52.526;13.408;2022-11-24T06:53:22;3.90;44.20
1413;DHT22;701;52.526;13.408;2022-11-24T06:55:48;3.90;43.90
1413;DHT22;701;52.526;13.408;2022-11-24T06:58:14;3.90;43.80
1413;DHT22;701;52.526;13.408;2022-11-24T07:00:40;3.90;43.60
1413;DHT22;701;52.526;13.408;2022-11-24T07:03:06;4.00;43.30
1413;DHT22;701;52.526;13.408;2022-11-24T07:05:32;3.90;42.90
1413;DHT22;701;52.526;13.408;2022-11-24T07:07:58;3.90;42.90
1413;DHT22;701;52.526;13.408;2022-11-24T07:10:25;3.90;43.00
1413;DHT22;701;52.526;13.408;2022-11-24T07:12:50;3.90;43.10
1413;DHT22;701;52.526;13.408;2022-11-24T07:15:16;3.90;43.10
1413;DHT22;701;52.526;13.408;2022-11-24T07:17:42;4.00;43.20
1413;DHT22;701;52.526;13.408;2022-11-24T07:20:08;4.00;43.30
1413;DHT22;701;52.526;13.408;2022-11-24T07:22:34;4.10;43.00
1413;DHT22;701;52.526;13.408;2022-11-24T07:25:00;4.20;42.20
1413;DHT22;701;52.526;13.408;2022-11-24T07:27:26;4.20;42.30
1413;DHT22;701;52.526;13.408;2022-11-24T07:29:52;4.20;41.10
1413;DHT22;701;52.526;13.408;2022-11-24T07:32:18;4.20;41.30
1413;DHT22;701;52.526;13.408;2022-11-24T07:34:43;4.20;41.20
1413;DHT22;701;52.526;13.408;2022-11-24T07:37:09;4.20;41.10
1413;DHT22;701;52.526;13.408;2022-11-24T07:39:35;4.30;41.20
1413;DHT22;701;52.526;13.408;2022-11-24T07:42:00;4.30;41.20
1413;DHT22;701;52.526;13.408;2022-11-24T07:44:27;4.40;40.70
1413;DHT22;701;52.526;13.408;2022-11-24T07:46:53;4.30;40.10
1413;DHT22;701;52.526;13.408;2022-11-24T07:49:19;4.30;40.00
1413;DHT22;701;52.526;13.408;2022-11-24T07:51:44;4.30;40.20
1413;DHT22;701;52.526;13.408;2022-11-24T07:54:10;4.30;40.50
1413;DHT22;701;52.526;13.408;2022-11-24T07:56:36;4.30;40.00
1413;DHT22;701;52.526;13.408;2022-11-24T07:59:02;4.40;40.20
1413;DHT22;701;52.526;13.408;2022-11-24T08:01:28;4.40;39.80
1413;DHT22;701;52.526;13.408;2022-11-24T08:03:53;4.40;39.80
1413;DHT22;701;52.526;13.408;2022-11-24T08:06:19;4.40;39.80
1413;DHT22;701;52.526;13.408;2022-11-24T08:08:46;4.50;40.00
1413;DHT22;701;52.526;13.408;2022-11-24T08:11:13;4.50;39.90
1413;DHT22;701;52.526;13.408;2022-11-24T08:13:40;4.60;39.90
1413;DHT22;701;52.526;13.408;2022-11-24T08:16:08;4.70;40.00
1413;DHT22;701;52.526;13.408;2022-11-24T08:18:35;4.80;39.60
1413;DHT22;701;52.526;13.408;2022-11-24T08:21:01;4.90;39.60
1413;DHT22;701;52.526;13.408;2022-11-24T08:23:28;4.90;39.20
1413;DHT22;701;52.526;13.408;2022-11-24T08:25:54;5.00;39.00
1413;DHT22;701;52.526;13.408;2022-11-24T08:28:21;5.10;38.50
1413;DHT22;701;52.526;13.408;2022-11-24T08:30:47;5.10;38.30
1413;DHT22;701;52.526;13.408;2022-11-24T08:33:13;5.20;38.10
1413;DHT22;701;52.526;13.408;2022-11-24T08:35:39;5.10;37.00
1413;DHT22;701;52.526;13.408;2022-11-24T08:38:05;5.10;37.00
1413;DHT22;701;52.526;13.408;2022-11-24T08:40:31;5.10;37.50
1413;DHT22;701;52.526;13.408;2022-11-24T08:42:58;5.10;37.80
1413;DHT22;701;52.526;13.408;2022-11-24T08:45:24;5.10;37.60
1413;DHT22;701;52.526;13.408;2022-11-24T08:47:54;5.20;37.60
1413;DHT22;701;52.526;13.408;2022-11-24T08:50:22;5.20;37.50
1413;DHT22;701;52.526;13.408;2022-11-24T08:52:49;5.20;37.10
1413;DHT22;701;52.526;13.408;2022-11-24T08:55:19;5.30;37.20
1413;DHT22;701;52.526;13.408;2022-11-24T08:57:45;5.20;36.10
1413;DHT22;701;52.526;13.408;2022-11-24T09:00:12;5.20;36.40
1413;DHT22;701;52.526;13.408;2022-11-24T09:02:38;5.20;36.80
1413;DHT22;701;52.526;13.408;2022-11-24T09:05:04;5.20;36.80
1413;DHT22;701;52.526;13.408;2022-11-24T09:07:30;5.20;36.50
1413;DHT22;701;52.526;13.408;2022-11-24T09:09:56;5.30;36.40
1413;DHT22;701;52.526;13.408;2022-11-24T09:12:22;5.30;36.60
1413;DHT22;701;52.526;13.408;2022-11-24T09:14:47;5.40;36.80
1413;DHT22;701;52.526;13.408;2022-11-24T09:17:13;5.40;36.90
1413;DHT22;701;52.526;13.408;2022-11-24T09:19:39;5.50;36.80
1413;DHT22;701;52.526;13.408;2022-11-24T09:22:04;5.60;36.40
1413;DHT22;701;52.526;13.408;2022-11-24T09:24:30;5.70;35.90
1413;DHT22;701;52.526;13.408;2022-11-24T09:26:56;5.80;35.40
1413;DHT22;701;52.526;13.408;2022-11-24T09:29:22;5.90;35.30
1413;DHT22;701;52.526;13.408;2022-11-24T09:31:47;6.00;34.90
1413;DHT22;701;52.526;13.408;2022-11-24T09:34:14;6.00;33.40
1413;DHT22;701;52.526;13.408;2022-11-24T09:36:40;6.10;33.80
1413;DHT22;701;52.526;13.408;2022-11-24T09:39:06;6.20;33.60
1413;DHT22;701;52.526;13.408;2022-11-24T09:50:03;6.60;31.30
1413;DHT22;701;52.526;13.408;2022-11-24T09:52:57;6.70;31.20
1413;DHT22;701;52.526;13.408;2022-11-24T09:55:43;6.70;31.70
1413;DHT22;701;52.526;13.408;2022-11-24T10:00:51;6.80;30.80
1413;DHT22;701;52.526;13.408;2022-11-24T10:03:40;6.80;30.80
1413;DHT22;701;52.526;13.408;2022-11-24T10:12:14;7.10;30.00
1413;DHT22;701;52.526;13.408;2022-11-24T10:25:56;7.60;28.60
1413;DHT22;701;52.526;13.408;2022-11-24T10:28:28;7.70;28.10
1413;DHT22;701;52.526;13.408;2022-11-24T10:33:41;7.90;27.70
1413;DHT22;701;52.526;13.408;2022-11-24T10:36:10;7.90;27.30
1413;DHT22;701;52.526;13.408;2022-11-24T10:38:49;8.00;27.10
1413;DHT22;701;52.526;13.408;2022-11-24T10:41:22;8.10;27.30
1413;DHT22;701;52.526;13.408;2022-11-24T10:43:51;8.20;27.20
1413;DHT22;701;52.526;13.408;2022-11-24T10:46:25;8.30;27.00
1413;DHT22;701;52.526;13.408;2022-11-24T10:49:02;8.40;25.90
1413;DHT22;701;52.526;13.408;2022-11-24T10:51:57;8.40;26.10
1413;DHT22;701;52.526;13.408;2022-11-24T10:54:26;8.40;25.90
1413;DHT22;701;52.526;13.408;2022-11-24T10:56:53;8.30;25.90
1413;DHT22;701;52.526;13.408;2022-11-24T11:01:51;8.10;26.00
1413;DHT22;701;52.526;13.408;2022-11-24T11:04:20;8.00;26.10
1413;DHT22;701;52.526;13.408;2022-11-24T11:06:46;7.90;26.20
1413;DHT22;701;52.526;13.408;2022-11-24T11:09:20;7.80;26.50
1413;DHT22;701;52.526;13.408;2022-11-24T11:11:47;7.80;26.90
1413;DHT22;701;52.526;13.408;2022-11-24T11:14:33;7.80;27.00
1413;DHT22;701;52.526;13.408;2022-11-24T11:17:29;7.90;27.10
1413;DHT22;701;52.526;13.408;2022-11-24T11:20:02;8.00;27.00
1413;DHT22;701;52.526;13.408;2022-11-24T11:22:30;8.20;27.20
1413;DHT22;701;52.526;13.408;2022-11-24T11:27:35;8.50;26.20
1413;DHT22;701;52.526;13.408;2022-11-24T11:30:17;8.60;26.20
1413;DHT22;701;52.526;13.408;2022-11-24T11:32:58;8.80;25.20
1413;DHT22;701;52.526;13.408;2022-11-24T11:35:26;8.80;25.00
1413;DHT22;701;52.526;13.408;2022-11-24T11:37:58;8.90;25.10
1413;DHT22;701;52.526;13.408;2022-11-24T11:40:29;8.90;24.80
1413;DHT22;701;52.526;13.408;2022-11-24T11:45:33;9.10;24.70
1413;DHT22;701;52.526;13.408;2022-11-24T12:03:49;8.90;25.10
1413;DHT22;701;52.526;13.408;2022-11-24T12:09:16;8.90;24.70
1413;DHT22;701;52.526;13.408;2022-11-24T12:11:56;8.80;24.80
1413;DHT22;701;52.526;13.408;2022-11-24T12:27:43;8.50;25.80
1413;DHT22;701;52.526;13.408;2022-11-24T12:30:17;8.40;26.10
1413;DHT22;701;52.526;13.408;2022-11-24T12:35:41;8.30;26.50
1413;DHT22;701;52.526;13.408;2022-11-24T12:41:16;8.30;27.00
1413;DHT22;701;52.526;13.408;2022-11-24T12:43:56;8.20;27.00
1413;DHT22;701;52.526;13.408;2022-11-24T12:51:40;8.30;27.30
1413;DHT22;701;52.526;13.408;2022-11-24T12:54:13;8.40;27.70
1413;DHT22;701;52.526;13.408;2022-11-24T12:57:03;8.50;27.70
1413;DHT22;701;52.526;13.408;2022-11-24T13:05:04;8.80;27.10
1413;DHT22;701;52.526;13.408;2022-11-24T13:07:49;8.90;27.00
1413;DHT22;701;52.526;13.408;2022-11-24T13:15:23;8.90;26.90
1413;DHT22;701;52.526;13.408;2022-11-24T13:17:49;8.90;26.70
1413;DHT22;701;52.526;13.408;2022-11-24T13:22:55;8.90;26.80
1413;DHT22;701;52.526;13.408;2022-11-24T13:25:24;8.80;26.80
1413;DHT22;701;52.526;13.408;2022-11-24T13:27:52;8.80;26.80
1413;DHT22;701;52.526;13.408;2022-11-24T13:41:09;8.80;26.90
1413;DHT22;701;52.526;13.408;2022-11-24T13:43:35;8.80;26.80
1413;DHT22;701;52.526;13.408;2022-11-24T13:46:02;8.70;26.90
1413;DHT22;701;52.526;13.408;2022-11-24T13:55:57;8.40;27.50
1413;DHT22;701;52.526;13.408;2022-11-24T14:09:02;8.60;27.70
1413;DHT22;701;52.526;13.408;2022-11-24T14:11:31;8.60;27.80
1413;DHT22;701;52.526;13.408;2022-11-24T14:13:57;8.60;27.70
1413;DHT22;701;52.526;13.408;2022-11-24T14:16:23;8.60;27.60
1413;DHT22;701;52.526;13.408;2022-11-24T14:18:50;8.60;27.60
1413;DHT22;701;52.526;13.408;2022-11-24T14:24:31;8.60;27.60
1413;DHT22;701;52.526;13.408;2022-11-24T14:26:34;8.60;27.70
1413;DHT22;701;52.526;13.408;2022-11-24T14:29:22;8.60;27.80
1413;DHT22;701;52.526;13.408;2022-11-24T14:31:59;8.50;27.90
1413;DHT22;701;52.526;13.408;2022-11-24T14:34:30;8.50;28.10
1413;DHT22;701;52.526;13.408;2022-11-24T14:36:57;8.50;28.10
1413;DHT22;701;52.526;13.408;2022-11-24T14:39:25;8.40;28.20
1413;DHT22;701;52.526;13.408;2022-11-24T14:44:22;8.40;28.50
1413;DHT22;701;52.526;13.408;2022-11-24T14:47:01;8.30;28.60
1413;DHT22;701;52.526;13.408;2022-11-24T14:49:27;8.30;28.70
1413;DHT22;701;52.526;13.408;2022-11-24T14:51:56;8.30;28.90
1413;DHT22;701;52.526;13.408;2022-11-24T14:54:23;8.30;29.00
1413;DHT22;701;52.526;13.408;2022-11-24T14:57:00;8.20;29.20
1413;DHT22;701;52.526;13.408;2022-11-24T14:59:29;8.20;29.20
1413;DHT22;701;52.526;13.408;2022-11-24T15:01:55;8.20;29.30
1413;DHT22;701;52.526;13.408;2022-11-24T15:09:56;8.10;29.70
1413;DHT22;701;52.526;13.408;2022-11-24T15:12:32;8.10;29.70
1413;DHT22;701;52.526;13.408;2022-11-24T15:15:15;8.10;29.90
1413;DHT22;701;52.526;13.408;2022-11-24T15:17:46;8.00;30.00
1413;DHT22;701;52.526;13.408;2022-11-24T15:22:44;8.00;30.40
1413;DHT22;701;52.526;13.408;2022-11-24T15:25:32;8.00;30.50
1413;DHT22;701;52.526;13.408;2022-11-24T15:27:59;8.00;30.50
1413;DHT22;701;52.526;13.408;2022-11-24T15:30:26;8.00;30.50
1413;DHT22;701;52.526;13.408;2022-11-24T15:32:54;8.00;30.50
1413;DHT22;701;52.526;13.408;2022-11-24T15:35:20;7.90;30.50
1413;DHT22;701;52.526;13.408;2022-11-24T15:37:48;7.90;30.40
1413;DHT22;701;52.526;13.408;2022-11-24T15:40:14;7.80;30.40
1413;DHT22;701;52.526;13.408;2022-11-24T15:42:40;7.80;30.40
1413;DHT22;701;52.526;13.408;2022-11-24T15:45:06;7.80;30.40
1413;DHT22;701;52.526;13.408;2022-11-24T15:47:32;7.80;30.70
1413;DHT22;701;52.526;13.408;2022-11-24T15:49:58;7.70;31.10
1413;DHT22;701;52.526;13.408;2022-11-24T15:52:24;7.70;31.20
1413;DHT22;701;52.526;13.408;2022-11-24T15:54:52;7.60;31.50
1413;DHT22;701;52.526;13.408;2022-11-24T15:57:20;7.60;31.70
1413;DHT22;701;52.526;13.408;2022-11-24T15:59:46;7.60;31.70
1413;DHT22;701;52.526;13.408;2022-11-24T16:02:11;7.60;32.00
1413;DHT22;701;52.526;13.408;2022-11-24T16:04:37;7.50;32.20
1413;DHT22;701;52.526;13.408;2022-11-24T16:07:10;7.50;32.20
1413;DHT22;701;52.526;13.408;2022-11-24T16:09:36;7.50;32.20
1413;DHT22;701;52.526;13.408;2022-11-24T16:12:03;7.60;32.30
1413;DHT22;701;52.526;13.408;2022-11-24T16:14:29;7.60;32.50
1413;DHT22;701;52.526;13.408;2022-11-24T16:16:55;7.50;32.30
1413;DHT22;701;52.526;13.408;2022-11-24T16:19:20;7.50;32.40
1413;DHT22;701;52.526;13.408;2022-11-24T16:21:47;7.60;32.60
1413;DHT22;701;52.526;13.408;2022-11-24T16:24:13;7.60;32.60
1413;DHT22;701;52.526;13.408;2022-11-24T16:26:38;7.60;32.70
1413;DHT22;701;52.526;13.408;2022-11-24T16:29:04;7.50;32.60
1413;DHT22;701;52.526;13.408;2022-11-24T16:31:30;7.60;32.80
1413;DHT22;701;52.526;13.408;2022-11-24T16:33:56;7.50;32.70
1413;DHT22;701;52.526;13.408;2022-11-24T16:36:23;7.50;32.70
1413;DHT22;701;52.526;13.408;2022-11-24T16:38:48;7.50;32.80
1413;DHT22;701;52.526;13.408;2022-11-24T16:41:14;7.50;33.00
1413;DHT22;701;52.526;13.408;2022-11-24T16:43:40;7.50;33.00
1413;DHT22;701;52.526;13.408;2022-11-24T16:48:43;7.30;32.90
1413;DHT22;701;52.526;13.408;2022-11-24T16:51:09;7.30;33.40
1413;DHT22;701;52.526;13.408;2022-11-24T16:53:36;7.20;33.40
1413;DHT22;701;52.526;13.408;2022-11-24T16:56:02;7.10;33.70
1413;DHT22;701;52.526;13.408;2022-11-24T16:58:28;7.00;34.10
1413;DHT22;701;52.526;13.408;2022-11-24T17:00:54;6.90;34.20
1413;DHT22;701;52.526;13.408;2022-11-24T17:03:32;6.90;34.40
1413;DHT22;701;52.526;13.408;2022-11-24T17:05:59;6.80;34.60
1413;DHT22;701;52.526;13.408;2022-11-24T17:08:25;6.70;35.30
1413;DHT22;701;52.526;13.408;2022-11-24T17:10:51;6.70;35.50
1413;DHT22;701;52.526;13.408;2022-11-24T17:13:17;6.70;35.90
1413;DHT22;701;52.526;13.408;2022-11-24T17:15:42;6.70;36.20
1413;DHT22;701;52.526;13.408;2022-11-24T17:18:08;6.70;36.60
1413;DHT22;701;52.526;13.408;2022-11-24T17:20:34;6.70;36.50
1413;DHT22;701;52.526;13.408;2022-11-24T17:23:00;6.70;36.60
1413;DHT22;701;52.526;13.408;2022-11-24T17:25:26;6.80;36.40
1413;DHT22;701;52.526;13.408;2022-11-24T17:27:52;6.90;36.50
1413;DHT22;701;52.526;13.408;2022-11-24T17:30:18;6.90;36.30
1413;DHT22;701;52.526;13.408;2022-11-24T17:32:44;6.90;36.30
1413;DHT22;701;52.526;13.408;2022-11-24T17:35:09;6.90;36.40
1413;DHT22;701;52.526;13.408;2022-11-24T17:37:36;7.00;36.70
1413;DHT22;701;52.526;13.408;2022-11-24T17:40:02;7.00;36.80
1413;DHT22;701;52.526;13.408;2022-11-24T17:42:28;7.00;36.60
1413;DHT22;701;52.526;13.408;2022-11-24T17:44:54;7.10;36.50
1413;DHT22;701;52.526;13.408;2022-11-24T17:47:19;7.10;36.40
1413;DHT22;701;52.526;13.408;2022-11-24T17:49:45;7.10;36.30
1413;DHT22;701;52.526;13.408;2022-11-24T17:52:11;7.20;36.20
1413;DHT22;701;52.526;13.408;2022-11-24T17:54:37;7.10;36.10
1413;DHT22;701;52.526;13.408;2022-11-24T17:57:02;7.10;35.90
1413;DHT22;701;52.526;13.408;2022-11-24T17:59:28;7.10;35.80
1413;DHT22;701;52.526;13.408;2022-11-24T18:01:54;7.00;36.10
1413;DHT22;701;52.526;13.408;2022-11-24T18:04:20;7.00;36.20
1413;DHT22;701;52.526;13.408;2022-11-24T18:06:45;7.00;36.50
1413;DHT22;701;52.526;13.408;2022-11-24T18:09:11;6.90;36.80
1413;DHT22;701;52.526;13.408;2022-11-24T18:11:37;6.90;37.00
1413;DHT22;701;52.526;13.408;2022-11-24T18:14:03;6.90;36.90
1413;DHT22;701;52.526;13.408;2022-11-24T18:16:33;7.00;37.00
1413;DHT22;701;52.526;13.408;2022-11-24T18:19:01;7.00;37.00
1413;DHT22;701;52.526;13.408;2022-11-24T18:21:27;7.00;37.00
1413;DHT22;701;52.526;13.408;2022-11-24T18:23:53;7.00;37.00
1413;DHT22;701;52.526;13.408;2022-11-24T18:26:19;7.00;37.00
1413;DHT22;701;52.526;13.408;2022-11-24T18:28:46;7.00;37.10
1413;DHT22;701;52.526;13.408;2022-11-24T18:31:15;7.00;37.10
1413;DHT22;701;52.526;13.408;2022-11-24T18:33:43;7.00;37.00
1413;DHT22;701;52.526;13.408;2022-11-24T18:36:17;7.10;36.90
1413;DHT22;701;52.526;13.408;2022-11-24T18:38:43;7.10;36.90
1413;DHT22;701;52.526;13.408;2022-11-24T18:41:11;7.00;37.60
1413;DHT22;701;52.526;13.408;2022-11-24T18:43:37;7.00;36.90
1413;DHT22;701;52.526;13.408;2022-11-24T18:46:05;6.90;37.10
1413;DHT22;701;52.526;13.408;2022-11-24T18:48:31;6.80;37.30